createdAt,value
2023-02-18T00:01:55.216Z,70.31
2023-02-18T00:04:23.984Z,70.04
2023-02-18T00:06:52.360Z,69.94
2023-02-18T00:09:23.194Z,69.97
2023-02-18T00:11:51.681Z,70.04
2023-02-18T00:14:20.615Z,70.32
2023-02-18T00:16:49.162Z,70.22
2023-02-18T00:19:21.913Z,69.98
2023-02-18T00:21:50.208Z,70.10
2023-02-18T00:24:19.361Z,70.22
2023-02-18T00:26:51.384Z,70.28
2023-02-18T00:29:20.947Z,70.43
2023-02-18T00:31:50.547Z,70.35
2023-02-18T00:34:19.306Z,70.53
2023-02-18T00:36:47.664Z,70.67
2023-02-18T00:39:18.347Z,70.97
2023-02-18T00:41:46.683Z,71.02
2023-02-18T00:44:18.621Z,71.27
2023-02-18T00:46:48.144Z,71.29
2023-02-18T00:49:19.272Z,71.29
2023-02-18T00:51:47.645Z,71.78
2023-02-18T00:54:16.803Z,71.96
2023-02-18T00:56:45.216Z,71.88
2023-02-18T00:59:15.195Z,72.00
2023-02-18T01:01:45.561Z,72.10
2023-02-18T01:04:14.000Z,72.13
2023-02-18T01:06:43.275Z,72.15
2023-02-18T01:09:12.057Z,72.14
2023-02-18T01:11:40.540Z,72.48
2023-02-18T01:14:08.890Z,72.14
2023-02-18T01:16:38.233Z,72.09
2023-02-18T01:19:11.149Z,72.03
2023-02-18T01:21:40.942Z,72.01
2023-02-18T01:24:09.692Z,72.13
2023-02-18T01:26:38.269Z,71.86
2023-02-18T01:29:06.651Z,71.87
2023-02-18T01:31:36.811Z,71.81
2023-02-18T01:34:05.256Z,71.75
2023-02-18T01:36:35.536Z,71.49
2023-02-18T01:39:03.879Z,71.58
2023-02-18T01:41:33.579Z,71.19
2023-02-18T01:44:13.004Z,71.23
2023-02-18T01:46:43.782Z,70.93
2023-02-18T01:49:15.130Z,70.56
2023-02-18T01:51:50.104Z,70.34
2023-02-18T01:54:22.881Z,70.04
2023-02-18T01:56:56.548Z,70.01
2023-02-18T01:59:29.128Z,69.75
2023-02-18T02:01:59.032Z,69.42
2023-02-18T02:04:28.335Z,69.48
2023-02-18T02:06:57.997Z,69.21
2023-02-18T02:09:32.562Z,68.89
2023-02-18T02:12:39.032Z,68.94
2023-02-18T02:15:26.898Z,68.54
2023-02-18T02:18:17.428Z,68.59
2023-02-18T02:21:26.889Z,68.22
2023-02-18T02:24:26.591Z,68.26
2023-02-18T02:27:11.330Z,67.74
2023-02-18T02:30:21.539Z,67.90
2023-02-18T02:33:17.133Z,67.62
2023-02-18T02:35:54.368Z,67.52
2023-02-18T02:38:30.630Z,67.26
2023-02-18T02:41:12.271Z,67.51
2023-02-18T02:43:50.043Z,67.26
2023-02-18T02:46:23.548Z,67.14
2023-02-18T02:49:03.263Z,67.29
2023-02-18T02:51:38.804Z,67.01
2023-02-18T02:54:14.375Z,66.97
2023-02-18T02:56:44.380Z,67.42
2023-02-18T02:59:17.655Z,67.16
2023-02-18T03:02:02.053Z,67.57
2023-02-18T03:04:54.604Z,67.75
2023-02-18T03:07:48.517Z,67.53
2023-02-18T03:10:35.828Z,68.13
2023-02-18T03:13:34.949Z,68.10
2023-02-18T03:16:14.434Z,68.39
2023-02-18T03:18:47.988Z,68.71
2023-02-18T03:21:23.683Z,68.87
2023-02-18T03:23:59.646Z,69.12
2023-02-18T03:26:32.379Z,69.36
2023-02-18T03:29:04.597Z,69.44
2023-02-18T03:31:39.569Z,70.10
2023-02-18T03:34:12.060Z,70.14
2023-02-18T03:36:41.858Z,70.64
2023-02-18T03:39:15.493Z,70.98
2023-02-18T03:41:45.565Z,71.18
2023-02-18T03:44:15.245Z,71.71
2023-02-18T03:46:45.770Z,72.20
2023-02-18T03:49:15.939Z,72.26
2023-02-18T03:51:44.863Z,72.42
2023-02-18T03:54:15.421Z,72.66
2023-02-18T03:56:44.754Z,72.95
2023-02-18T03:59:14.350Z,73.06
2023-02-18T04:01:42.817Z,73.23
2023-02-18T04:04:11.876Z,73.22
2023-02-18T04:06:40.855Z,72.91
2023-02-18T04:09:09.701Z,72.96
2023-02-18T04:11:42.051Z,73.04
2023-02-18T04:14:11.481Z,72.88
2023-02-18T04:16:40.182Z,72.57
2023-02-18T04:19:09.067Z,72.77
2023-02-18T04:21:37.388Z,72.47
2023-02-18T04:24:07.700Z,72.13
2023-02-18T04:26:36.060Z,72.12
2023-02-18T04:29:06.772Z,72.08
2023-02-18T04:31:35.225Z,71.60
2023-02-18T04:34:05.313Z,71.73
2023-02-18T04:36:34.118Z,71.19
2023-02-18T04:39:02.888Z,71.30
2023-02-18T04:41:32.453Z,71.05
2023-02-18T04:44:01.471Z,71.07
2023-02-18T04:46:31.615Z,70.50
2023-02-18T04:48:59.937Z,70.25
2023-02-18T04:51:30.327Z,70.05
2023-02-18T04:53:58.697Z,70.16
2023-02-18T04:56:27.415Z,69.82
2023-02-18T04:58:55.764Z,69.88
2023-02-18T05:01:24.576Z,69.62
2023-02-18T05:03:54.237Z,69.51
2023-02-18T05:06:23.648Z,69.40
2023-02-18T05:08:52.024Z,69.67
2023-02-18T05:11:21.067Z,69.70
2023-02-18T05:13:49.448Z,69.61
2023-02-18T05:16:17.796Z,69.60
2023-02-18T05:18:46.998Z,69.25
2023-02-18T05:21:16.665Z,69.49
2023-02-18T05:23:45.995Z,69.33
2023-02-18T05:26:14.295Z,69.11
2023-02-18T05:28:44.262Z,69.42
2023-02-18T05:31:13.302Z,69.33
2023-02-18T05:33:41.837Z,69.30
2023-02-18T05:36:10.730Z,69.29
2023-02-18T05:38:41.429Z,69.32
2023-02-18T05:41:09.810Z,69.31
2023-02-18T05:43:53.613Z,69.77
2023-02-18T05:46:21.954Z,69.44
2023-02-18T05:48:51.148Z,69.31
2023-02-18T05:51:19.484Z,69.29
2023-02-18T05:53:49.880Z,69.38
2023-02-18T05:56:18.160Z,69.19
2023-02-18T05:58:46.856Z,68.87
2023-02-18T06:01:16.260Z,68.95
2023-02-18T06:03:44.592Z,68.74
2023-02-18T06:06:13.735Z,68.32
2023-02-18T06:08:42.056Z,68.35
2023-02-18T06:11:13.450Z,68.33
2023-02-18T06:13:41.746Z,68.53
2023-02-18T06:16:11.263Z,68.34
2023-02-18T06:18:39.871Z,68.13
2023-02-18T06:21:09.421Z,67.95
2023-02-18T06:23:38.210Z,67.90
2023-02-18T06:26:08.082Z,67.98
2023-02-18T06:28:37.904Z,67.61
2023-02-18T06:31:07.313Z,67.67
2023-02-18T06:33:35.896Z,67.41
2023-02-18T06:36:08.355Z,67.34
2023-02-18T06:38:37.467Z,67.12
2023-02-18T06:41:06.559Z,67.29
2023-02-18T06:43:35.068Z,67.25
2023-02-18T06:46:05.944Z,66.88
2023-02-18T06:48:35.564Z,66.72
2023-02-18T06:51:04.015Z,66.63
2023-02-18T06:53:32.781Z,66.61
2023-02-18T06:56:01.089Z,66.78
2023-02-18T06:58:29.836Z,66.43
2023-02-18T07:00:58.520Z,66.23
2023-02-18T07:03:28.820Z,66.24
2023-02-18T07:05:57.653Z,66.43
2023-02-18T07:08:26.393Z,66.02
2023-02-18T07:10:54.751Z,66.03
2023-02-18T07:13:23.483Z,65.69
2023-02-18T07:15:51.796Z,65.78
2023-02-18T07:18:20.821Z,65.70
2023-02-18T07:20:50.473Z,65.71
2023-02-18T07:23:19.179Z,65.62
2023-02-18T07:25:47.467Z,65.14
2023-02-18T07:28:17.332Z,65.29
2023-02-18T07:30:45.677Z,64.92
2023-02-18T07:33:15.522Z,64.93
2023-02-18T07:35:43.904Z,64.74
2023-02-18T07:38:13.612Z,64.58
2023-02-18T07:40:41.931Z,64.67
2023-02-18T07:43:10.680Z,64.54
2023-02-18T07:45:39.541Z,64.56
2023-02-18T07:48:07.924Z,64.29
2023-02-18T07:50:37.696Z,64.16
2023-02-18T07:53:06.827Z,64.34
2023-02-18T07:55:52.210Z,64.22
2023-02-18T07:58:22.283Z,63.92
2023-02-18T08:00:51.330Z,64.07
2023-02-18T08:03:20.782Z,63.96
2023-02-18T08:05:50.581Z,63.98
2023-02-18T08:08:21.877Z,63.84
2023-02-18T08:10:53.172Z,63.63
2023-02-18T08:13:22.114Z,63.67
2023-02-18T08:15:50.944Z,63.74
2023-02-18T08:18:21.437Z,63.57
2023-02-18T08:20:50.728Z,63.28
2023-02-18T08:23:20.348Z,63.25
2023-02-18T08:25:52.492Z,63.40
2023-02-18T08:28:23.756Z,63.23
2023-02-18T08:30:53.972Z,62.96
2023-02-18T08:33:24.555Z,62.83
2023-02-18T08:35:54.690Z,63.03
2023-02-18T08:38:24.928Z,62.94
2023-02-18T08:41:02.857Z,62.93
2023-02-18T08:43:31.619Z,62.87
2023-02-18T08:46:00.883Z,62.98
2023-02-18T08:48:30.127Z,62.80
2023-02-18T08:50:59.644Z,62.96
2023-02-18T08:53:28.106Z,62.82
2023-02-18T08:55:58.163Z,62.67
2023-02-18T08:58:26.487Z,62.36
2023-02-18T09:00:55.336Z,62.27
2023-02-18T09:03:23.779Z,62.08
2023-02-18T09:05:52.065Z,61.97
2023-02-18T09:08:20.428Z,61.77
2023-02-18T09:10:48.899Z,61.89
2023-02-18T09:13:18.989Z,61.60
2023-02-18T09:15:47.544Z,61.32
2023-02-18T09:18:16.366Z,61.19
2023-02-18T09:20:44.668Z,60.96
2023-02-18T09:23:13.334Z,60.74
2023-02-18T09:25:42.311Z,60.54
2023-02-18T09:28:10.587Z,60.19
2023-02-18T09:30:42.300Z,59.95
2023-02-18T09:33:10.628Z,59.59
2023-02-18T09:35:41.913Z,59.19
2023-02-18T09:38:12.009Z,59.17
2023-02-18T09:40:43.933Z,59.06
2023-02-18T09:43:24.168Z,59.00
2023-02-18T09:45:55.228Z,58.69
2023-02-18T09:48:28.957Z,58.47
2023-02-18T09:50:57.497Z,58.05
2023-02-18T09:53:26.834Z,57.68
2023-02-18T09:55:57.081Z,58.00
2023-02-18T09:58:31.691Z,58.04
2023-02-18T10:01:08.057Z,57.87
2023-02-18T10:03:36.786Z,57.69
2023-02-18T10:06:09.248Z,57.56
2023-02-18T10:08:41.073Z,57.61
2023-02-18T10:11:13.711Z,57.35
2023-02-18T10:13:42.408Z,57.30
2023-02-18T10:16:17.418Z,56.96
2023-02-18T10:18:49.663Z,56.98
2023-02-18T10:21:21.735Z,56.95
2023-02-18T10:23:56.015Z,56.66
2023-02-18T10:26:24.555Z,56.75
2023-02-18T10:28:52.957Z,56.64
2023-02-18T10:31:30.801Z,56.95
2023-02-18T10:34:06.626Z,56.54
2023-02-18T10:36:42.495Z,56.68
2023-02-18T10:39:33.242Z,56.36
2023-02-18T10:42:14.372Z,56.55
2023-02-18T10:44:51.497Z,56.40
2023-02-18T10:47:34.805Z,56.34
2023-02-18T10:50:09.474Z,56.70
2023-02-18T10:52:42.530Z,56.26
2023-02-18T10:55:12.374Z,56.34
2023-02-18T10:57:49.972Z,56.24
2023-02-18T11:00:23.882Z,56.06
2023-02-18T11:03:18.226Z,56.25
2023-02-18T11:05:48.271Z,56.35
2023-02-18T11:08:20.984Z,56.16
2023-02-18T11:10:50.503Z,56.49
2023-02-18T11:13:27.344Z,56.34
2023-02-18T11:15:59.719Z,56.14
2023-02-18T11:18:37.096Z,56.23
2023-02-18T11:21:08.215Z,56.09
2023-02-18T11:23:48.603Z,56.13
2023-02-18T11:26:19.273Z,55.95
2023-02-18T11:28:50.015Z,55.71
2023-02-18T11:31:23.404Z,55.91
2023-02-18T11:33:56.276Z,55.74
2023-02-18T11:36:26.652Z,55.57
2023-02-18T11:38:57.917Z,55.37
2023-02-18T11:41:34.300Z,55.14
2023-02-18T11:44:04.357Z,55.36
2023-02-18T11:46:33.626Z,54.98
2023-02-18T11:49:23.753Z,55.02
2023-02-18T11:51:52.508Z,54.85
2023-02-18T11:54:27.294Z,55.03
2023-02-18T11:56:58.130Z,55.00
2023-02-18T11:59:27.281Z,54.85
2023-02-18T12:02:00.780Z,54.79
2023-02-18T12:04:38.274Z,54.81
2023-02-18T12:07:17.740Z,54.93
2023-02-18T12:09:50.401Z,54.74
2023-02-18T12:12:27.840Z,54.92
2023-02-18T12:14:57.580Z,54.92
2023-02-18T12:17:42.741Z,54.81
2023-02-18T12:20:27.279Z,54.90
2023-02-18T12:23:04.171Z,55.02
2023-02-18T12:25:41.793Z,55.00
2023-02-18T12:28:27.810Z,54.91
2023-02-18T12:31:20.014Z,55.12
2023-02-18T12:34:02.742Z,55.10
2023-02-18T12:36:44.681Z,55.16
2023-02-18T12:39:23.504Z,55.29
2023-02-18T12:42:05.205Z,55.06
2023-02-18T12:44:45.484Z,55.12
2023-02-18T12:47:40.018Z,55.05
2023-02-18T12:50:38.154Z,54.93
2023-02-18T12:53:27.207Z,55.09
2023-02-18T12:56:09.249Z,55.03
2023-02-18T12:58:50.641Z,55.14
2023-02-18T13:01:36.408Z,55.10
2023-02-18T13:04:20.048Z,55.10
2023-02-18T13:07:06.894Z,54.76
2023-02-18T13:09:49.065Z,54.72
2023-02-18T13:12:25.318Z,54.63
2023-02-18T13:15:00.870Z,54.58
2023-02-18T13:17:34.883Z,54.97
2023-02-18T13:20:07.504Z,54.77
2023-02-18T13:22:37.629Z,55.15
2023-02-18T13:25:14.340Z,55.09
2023-02-18T13:27:49.781Z,55.14
2023-02-18T13:30:24.685Z,55.29
2023-02-18T13:33:06.015Z,55.22
2023-02-18T13:35:40.067Z,55.69
2023-02-18T13:38:27.822Z,55.60
2023-02-18T13:40:59.649Z,55.82
2023-02-18T13:43:33.817Z,55.76
2023-02-18T13:46:14.982Z,55.74
2023-02-18T13:48:46.951Z,55.88
2023-02-18T13:51:18.459Z,55.88
2023-02-18T13:53:53.017Z,56.09
2023-02-18T13:56:28.915Z,56.14
2023-02-18T13:59:02.456Z,55.90
2023-02-18T14:01:44.057Z,56.19
2023-02-18T14:04:51.075Z,56.40
2023-02-18T14:07:49.008Z,56.43
2023-02-18T14:10:35.927Z,56.40
2023-02-18T14:13:40.860Z,56.41
2023-02-18T14:16:10.429Z,56.67
2023-02-18T14:19:03.259Z,56.72
2023-02-18T14:21:44.813Z,56.74
2023-02-18T14:24:14.336Z,56.66
2023-02-18T14:26:48.317Z,56.56
2023-02-18T14:29:23.985Z,56.44
2023-02-18T14:31:57.437Z,56.52
2023-02-18T14:35:03.634Z,56.02
2023-02-18T14:37:48.951Z,55.90
2023-02-18T14:40:27.518Z,55.58
2023-02-18T14:43:05.833Z,55.33
2023-02-18T14:46:00.312Z,55.10
2023-02-18T14:48:57.546Z,55.07
2023-02-18T14:51:28.131Z,54.85
2023-02-18T14:53:56.900Z,54.94
2023-02-18T14:56:25.487Z,54.66
2023-02-18T14:58:59.812Z,54.44
2023-02-18T15:01:32.029Z,54.36
2023-02-18T15:04:03.694Z,54.18
2023-02-18T15:06:33.636Z,54.24
2023-02-18T15:09:05.062Z,54.19
2023-02-18T15:11:39.278Z,54.12
2023-02-18T15:14:15.549Z,54.24
2023-02-18T15:16:47.036Z,54.37
2023-02-18T15:19:18.988Z,54.58
2023-02-18T15:21:49.763Z,54.69
2023-02-18T15:24:26.195Z,54.65
2023-02-18T15:26:58.510Z,54.65
2023-02-18T15:29:28.619Z,54.68
2023-02-18T15:31:59.322Z,54.95
2023-02-18T15:34:35.916Z,54.45
2023-02-18T15:37:06.889Z,54.35
2023-02-18T15:39:38.977Z,54.31
2023-02-18T15:42:20.117Z,54.19
2023-02-18T15:44:51.329Z,54.03
2023-02-18T15:47:22.895Z,53.88
2023-02-18T15:49:54.536Z,53.65
2023-02-18T15:52:28.126Z,53.29
2023-02-18T15:54:57.601Z,53.37
2023-02-18T15:57:29.590Z,53.25
2023-02-18T16:00:04.433Z,52.97
2023-02-18T16:02:34.788Z,53.21
2023-02-18T16:05:05.450Z,53.05
2023-02-18T16:07:39.438Z,53.20
2023-02-18T16:10:18.991Z,52.94
2023-02-18T16:12:51.743Z,52.87
2023-02-18T16:15:26.693Z,53.17
2023-02-18T16:17:58.934Z,53.17
2023-02-18T16:20:32.176Z,53.08
2023-02-18T16:23:04.029Z,53.26
2023-02-18T16:25:43.716Z,53.27
2023-02-18T16:28:16.551Z,53.03
2023-02-18T16:30:46.358Z,53.04
2023-02-18T16:33:16.707Z,53.21
2023-02-18T16:35:50.918Z,53.39
2023-02-18T16:38:22.875Z,53.26
2023-02-18T16:40:52.955Z,53.45
2023-02-18T16:43:24.126Z,53.59
2023-02-18T16:45:54.539Z,53.62
2023-02-18T16:48:29.261Z,53.41
2023-02-18T16:50:58.387Z,53.71
2023-02-18T16:53:27.196Z,53.40
2023-02-18T16:55:56.331Z,53.62
2023-02-18T16:58:26.218Z,53.56
2023-02-18T17:00:55.123Z,53.73
2023-02-18T17:03:24.862Z,53.40
2023-02-18T17:05:53.239Z,53.71
2023-02-18T17:08:23.945Z,53.55
2023-02-18T17:10:54.343Z,53.53
2023-02-18T17:13:24.555Z,53.66
2023-02-18T17:15:56.046Z,53.77
2023-02-18T17:18:26.869Z,53.64
2023-02-18T17:20:57.476Z,53.71
2023-02-18T17:23:25.988Z,53.68
2023-02-18T17:25:56.022Z,53.97
2023-02-18T17:28:24.442Z,53.70
2023-02-18T17:30:57.918Z,54.11
2023-02-18T17:33:27.749Z,54.09
2023-02-18T17:35:56.557Z,54.26
2023-02-18T17:38:24.941Z,54.15
2023-02-18T17:40:53.679Z,54.24
2023-02-18T17:43:25.279Z,54.21
2023-02-18T17:45:56.012Z,54.07
2023-02-18T17:48:25.223Z,54.22
2023-02-18T17:50:55.953Z,54.36
2023-02-18T17:53:25.006Z,54.43
2023-02-18T17:55:55.397Z,54.36
2023-02-18T17:58:23.741Z,54.43
2023-02-18T18:00:54.829Z,54.52
2023-02-18T18:03:24.465Z,54.58
2023-02-18T18:05:54.447Z,54.40
2023-02-18T18:08:25.313Z,54.57
2023-02-18T18:10:56.228Z,54.66
2023-02-18T18:13:27.789Z,54.63
2023-02-18T18:15:57.983Z,54.68
2023-02-18T18:18:27.458Z,54.73
2023-02-18T18:21:00.203Z,54.82
2023-02-18T18:23:30.129Z,54.88
2023-02-18T18:26:00.770Z,55.06
2023-02-18T18:28:32.965Z,55.09
2023-02-18T18:31:03.097Z,55.22
2023-02-18T18:33:34.159Z,55.16
2023-02-18T18:36:03.075Z,55.16
2023-02-18T18:38:32.888Z,55.33
2023-02-18T18:41:01.225Z,55.40
2023-02-18T18:43:33.373Z,55.40
2023-02-18T18:46:02.286Z,55.49
2023-02-18T18:48:31.486Z,55.63
2023-02-18T18:51:01.970Z,55.76
2023-02-18T18:53:33.610Z,55.95
2023-02-18T18:56:07.097Z,56.11
2023-02-18T18:58:35.645Z,56.10
2023-02-18T19:01:07.417Z,56.20
2023-02-18T19:03:38.655Z,56.23
2023-02-18T19:06:07.032Z,56.06
2023-02-18T19:08:37.654Z,56.30
2023-02-18T19:11:06.254Z,56.44
2023-02-18T19:13:36.521Z,56.05
2023-02-18T19:16:08.800Z,56.46
2023-02-18T19:18:38.063Z,56.39
2023-02-18T19:21:07.354Z,56.24
2023-02-18T19:23:37.367Z,56.56
2023-02-18T19:26:06.438Z,56.64
2023-02-18T19:28:35.197Z,56.47
2023-02-18T19:31:07.771Z,56.62
2023-02-18T19:33:37.491Z,56.54
2023-02-18T19:36:09.283Z,56.67
2023-02-18T19:38:39.750Z,56.55
2023-02-18T19:41:10.765Z,56.78
2023-02-18T19:43:39.506Z,56.83
2023-02-18T19:46:09.861Z,56.67
2023-02-18T19:48:38.745Z,56.80
2023-02-18T19:51:08.157Z,57.00
2023-02-18T19:53:37.534Z,56.97
2023-02-18T19:56:08.539Z,56.90
2023-02-18T19:58:39.995Z,57.08
2023-02-18T20:01:12.821Z,57.18
2023-02-18T20:03:41.219Z,57.12
2023-02-18T20:06:16.779Z,57.08
2023-02-18T20:08:45.791Z,57.11
2023-02-18T20:11:15.695Z,57.29
2023-02-18T20:13:45.106Z,57.31
2023-02-18T20:16:13.658Z,57.38
2023-02-18T20:18:43.046Z,57.37
2023-02-18T20:21:12.873Z,57.28
2023-02-18T20:23:41.605Z,57.51
2023-02-18T20:26:11.445Z,57.48
2023-02-18T20:28:41.627Z,57.82
2023-02-18T20:31:12.761Z,57.75
2023-02-18T20:33:42.519Z,57.65
2023-02-18T20:36:14.176Z,57.79
2023-02-18T20:38:42.830Z,57.94
2023-02-18T20:41:14.502Z,57.94
2023-02-18T20:43:44.447Z,58.14
2023-02-18T20:46:15.568Z,58.09
2023-02-18T20:48:44.477Z,57.91
2023-02-18T20:51:20.329Z,58.17
2023-02-18T20:53:50.281Z,58.39
2023-02-18T20:56:20.947Z,58.23
2023-02-18T20:58:51.258Z,58.31
2023-02-18T21:01:20.843Z,58.35
2023-02-18T21:03:49.973Z,58.26
2023-02-18T21:06:20.515Z,58.64
2023-02-18T21:08:51.185Z,58.78
2023-02-18T21:11:21.662Z,58.84
2023-02-18T21:13:53.906Z,58.90
2023-02-18T21:16:24.729Z,59.17
2023-02-18T21:18:53.441Z,59.47
2023-02-18T21:21:23.443Z,59.48
2023-02-18T21:23:52.821Z,59.20
2023-02-18T21:26:23.069Z,59.35
2023-02-18T21:28:54.115Z,59.80
2023-02-18T21:31:25.796Z,59.65
2023-02-18T21:33:54.327Z,59.95
2023-02-18T21:36:23.420Z,60.03
2023-02-18T21:38:56.078Z,60.29
2023-02-18T21:41:26.115Z,60.04
2023-02-18T21:43:56.195Z,60.27
2023-02-18T21:46:26.242Z,60.45
2023-02-18T21:49:06.267Z,60.55
2023-02-18T21:51:54.972Z,60.30
2023-02-18T21:54:25.150Z,60.61
2023-02-18T21:56:54.451Z,60.95
2023-02-18T21:59:28.332Z,61.07
2023-02-18T22:02:00.366Z,61.18
2023-02-18T22:04:29.906Z,61.23
2023-02-18T22:06:59.958Z,61.58
2023-02-18T22:09:28.460Z,61.49
2023-02-18T22:11:57.724Z,61.90
2023-02-18T22:14:27.945Z,61.80
2023-02-18T22:16:56.294Z,61.77
2023-02-18T22:19:25.785Z,61.83
2023-02-18T22:21:54.745Z,62.12
2023-02-18T22:24:23.156Z,62.37
2023-02-18T22:26:52.116Z,62.95
2023-02-18T22:29:21.705Z,63.16
2023-02-18T22:31:53.338Z,63.37
2023-02-18T22:34:23.997Z,63.77
2023-02-18T22:36:52.331Z,63.90
2023-02-18T22:39:20.763Z,64.56
2023-02-18T22:41:50.013Z,64.56
2023-02-18T22:44:19.014Z,64.87
2023-02-18T22:46:48.960Z,65.06
2023-02-18T22:49:18.608Z,65.40
2023-02-18T22:51:48.043Z,65.66
2023-02-18T22:54:18.373Z,65.85
2023-02-18T22:56:49.656Z,66.25
2023-02-18T22:59:21.148Z,66.29
2023-02-18T23:01:50.512Z,66.79
2023-02-18T23:04:22.582Z,66.88
2023-02-18T23:06:51.585Z,66.99
2023-02-18T23:09:23.292Z,67.26
2023-02-18T23:11:52.891Z,67.52
2023-02-18T23:14:23.293Z,67.78
2023-02-18T23:17:12.410Z,68.35
2023-02-18T23:19:45.322Z,68.62
2023-02-18T23:22:15.591Z,68.72
2023-02-18T23:24:46.348Z,69.46
2023-02-18T23:27:16.254Z,69.36
2023-02-18T23:29:45.541Z,69.79
2023-02-18T23:32:14.023Z,70.06
2023-02-18T23:34:43.679Z,70.16
2023-02-18T23:37:13.165Z,70.53
2023-02-18T23:39:41.522Z,71.13
2023-02-18T23:42:10.678Z,71.10
2023-02-18T23:44:38.976Z,71.36
2023-02-18T23:47:08.839Z,71.72
2023-02-18T23:49:37.140Z,72.15
2023-02-18T23:52:07.294Z,72.21
2023-02-18T23:54:35.960Z,72.38
2023-02-18T23:57:04.460Z,72.60
2023-02-18T23:59:33.818Z,73.07
